createdAt,value
2022-08-03T00:05:01.734Z,2.50
2022-08-03T00:10:05.231Z,2.40
2022-08-03T00:15:11.316Z,2.40
2022-08-03T00:20:19.679Z,3.00
2022-08-03T00:25:22.862Z,2.30
2022-08-03T00:30:30.939Z,2.60
2022-08-03T00:35:36.800Z,2.40
2022-08-03T00:40:56.824Z,2.50
2022-08-03T00:46:00.016Z,2.60
2022-08-03T00:51:03.724Z,2.40
2022-08-03T00:56:07.364Z,2.30
2022-08-03T01:01:10.853Z,2.20
2022-08-03T01:06:19.032Z,2.20
2022-08-03T01:11:31.262Z,2.20
2022-08-03T01:16:47.680Z,1.90
2022-08-03T01:21:56.709Z,2.20
2022-08-03T01:27:19.335Z,2.00
2022-08-03T01:32:53.636Z,2.20
2022-08-03T01:38:07.498Z,2.20
2022-08-03T01:43:15.309Z,2.10
2022-08-03T01:48:43.212Z,2.30
2022-08-03T01:53:50.496Z,2.00
2022-08-03T01:58:55.864Z,2.30
2022-08-03T02:04:01.275Z,2.50
2022-08-03T02:09:07.549Z,2.70
2022-08-03T02:14:11.720Z,2.80
2022-08-03T02:19:17.057Z,2.70
2022-08-03T02:24:21.616Z,2.20
2022-08-03T02:29:39.825Z,2.20
2022-08-03T02:34:47.907Z,1.80
2022-08-03T02:39:53.682Z,2.10
2022-08-03T02:44:59.277Z,2.60
2022-08-03T02:50:04.206Z,2.10
2022-08-03T02:55:11.322Z,2.70
2022-08-03T03:00:19.656Z,3.00
2022-08-03T03:05:52.192Z,2.90
2022-08-03T03:10:58.727Z,2.60
2022-08-03T03:16:04.327Z,2.40
2022-08-03T03:21:10.082Z,2.90
2022-08-03T03:26:15.990Z,2.60
2022-08-03T03:31:19.268Z,2.70
2022-08-03T03:36:22.537Z,3.00
2022-08-03T03:41:25.942Z,2.60
2022-08-03T03:46:29.699Z,2.50
2022-08-03T03:51:32.981Z,1.90
2022-08-03T03:56:36.160Z,2.80
2022-08-03T04:01:39.984Z,2.60
2022-08-03T04:07:01.754Z,2.80
2022-08-03T04:12:06.473Z,3.10
2022-08-03T04:17:12.690Z,2.80
2022-08-03T04:22:21.836Z,2.60
2022-08-03T04:27:31.092Z,2.60
2022-08-03T04:32:36.423Z,2.60
2022-08-03T04:37:43.681Z,2.70
2022-08-03T04:42:49.234Z,2.70
2022-08-03T04:47:53.558Z,2.60
2022-08-03T04:52:57.340Z,2.50
2022-08-03T04:58:01.842Z,2.20
2022-08-03T05:03:20.490Z,2.70
2022-08-03T05:08:28.413Z,3.20
2022-08-03T05:13:32.829Z,2.50
2022-08-03T05:18:36.450Z,2.70
2022-08-03T05:23:39.883Z,2.50
2022-08-03T05:28:51.199Z,2.50
2022-08-03T05:33:55.190Z,2.60
2022-08-03T05:39:02.516Z,2.30
2022-08-03T05:44:06.712Z,2.30
2022-08-03T05:49:10.006Z,2.20
2022-08-03T05:54:13.648Z,2.60
2022-08-03T05:59:37.719Z,2.10
2022-08-03T06:04:40.562Z,2.30
2022-08-03T06:10:35.061Z,2.10
2022-08-03T06:15:07.856Z,1.90
2022-08-03T06:20:20.736Z,2.30
2022-08-03T06:25:24.033Z,2.20
2022-08-03T06:30:27.383Z,2.20
2022-08-03T06:35:30.795Z,2.10
2022-08-03T06:40:40.146Z,2.20
2022-08-03T06:45:47.705Z,2.00
2022-08-03T06:50:51.129Z,2.20
2022-08-03T06:55:55.239Z,2.40
2022-08-03T07:00:58.931Z,2.80
2022-08-03T07:06:02.224Z,2.10
2022-08-03T07:11:08.280Z,2.30
2022-08-03T07:16:12.272Z,2.30
2022-08-03T07:21:17.081Z,2.80
2022-08-03T07:26:20.365Z,2.70
2022-08-03T07:31:23.688Z,2.60
2022-08-03T07:36:27.332Z,2.20
2022-08-03T07:41:30.591Z,3.40
2022-08-03T07:46:33.900Z,3.70
2022-08-03T07:51:37.185Z,3.30
2022-08-03T07:56:40.372Z,3.30
2022-08-03T08:01:43.662Z,3.40
2022-08-03T08:06:47.061Z,3.50
2022-08-03T08:11:53.259Z,2.80
2022-08-03T08:16:56.677Z,2.90
2022-08-03T08:22:02.207Z,2.60
2022-08-03T08:27:09.535Z,2.80
2022-08-03T08:32:16.127Z,2.30
2022-08-03T08:37:20.641Z,2.50
2022-08-03T08:42:24.011Z,2.20
2022-08-03T08:47:51.060Z,2.10
2022-08-03T08:53:01.461Z,2.50
2022-08-03T08:58:06.865Z,2.40
2022-08-03T09:03:10.288Z,2.20
2022-08-03T09:08:15.981Z,2.30
2022-08-03T09:13:19.721Z,2.10
2022-08-03T09:18:32.859Z,3.00
2022-08-03T09:24:01.375Z,2.50
2022-08-03T09:29:13.446Z,2.80
2022-08-03T09:34:18.748Z,2.60
2022-08-03T09:39:41.749Z,2.50
2022-08-03T09:44:50.119Z,2.70
2022-08-03T09:50:02.535Z,2.40
2022-08-03T09:56:32.943Z,2.70
2022-08-03T10:00:53.224Z,2.60
2022-08-03T10:05:59.731Z,2.50
2022-08-03T10:11:03.635Z,2.50
2022-08-03T10:16:22.719Z,2.40
2022-08-03T10:21:34.109Z,2.40
2022-08-03T10:26:40.077Z,2.40
2022-08-03T10:31:58.163Z,2.40
2022-08-03T10:37:08.802Z,2.20
2022-08-03T10:42:14.777Z,2.60
2022-08-03T10:47:19.126Z,2.50
2022-08-03T10:52:38.187Z,2.60
2022-08-03T10:57:58.350Z,2.50
2022-08-03T11:03:14.283Z,2.40
2022-08-03T11:08:28.710Z,2.70
2022-08-03T11:13:34.180Z,2.30
2022-08-03T11:18:57.151Z,2.00
2022-08-03T11:24:02.992Z,2.60
2022-08-03T11:29:32.164Z,2.20
2022-08-03T11:35:07.298Z,2.50
2022-08-03T11:40:39.545Z,2.10
2022-08-03T11:45:59.563Z,2.40
2022-08-03T11:51:04.376Z,2.40
2022-08-03T11:56:12.698Z,2.50
2022-08-03T12:01:23.033Z,2.10
2022-08-03T12:06:26.567Z,2.50
2022-08-03T12:11:31.092Z,2.20
2022-08-03T12:16:34.382Z,2.40
2022-08-03T12:21:56.877Z,2.10
2022-08-03T12:27:00.951Z,2.40
2022-08-03T12:32:04.398Z,1.90
2022-08-03T12:37:29.243Z,1.90
2022-08-03T12:42:36.571Z,2.00
2022-08-03T12:48:00.793Z,2.00
2022-08-03T12:53:08.041Z,1.80
2022-08-03T12:58:34.190Z,2.30
2022-08-03T13:03:52.937Z,2.20
2022-08-03T13:09:07.927Z,2.00
2022-08-03T13:14:13.519Z,2.20
2022-08-03T13:19:23.236Z,2.00
2022-08-03T13:24:26.585Z,1.80
2022-08-03T13:29:29.991Z,2.40
2022-08-03T13:34:33.204Z,2.30
2022-08-03T13:39:58.379Z,2.20
2022-08-03T13:45:01.192Z,2.60
2022-08-03T13:50:04.953Z,2.20
2022-08-03T13:55:08.970Z,2.00
2022-08-03T14:00:12.649Z,2.20
2022-08-03T14:05:19.494Z,2.10
2022-08-03T14:10:22.726Z,2.00
2022-08-03T14:15:27.028Z,2.00
2022-08-03T14:20:37.321Z,2.20
2022-08-03T14:25:51.514Z,2.10
2022-08-03T14:30:59.449Z,1.70
2022-08-03T14:36:02.614Z,2.20
2022-08-03T14:41:06.194Z,2.30
2022-08-03T14:46:15.482Z,2.20
2022-08-03T14:51:19.628Z,2.40
2022-08-03T14:56:22.872Z,2.10
2022-08-03T15:02:05.331Z,2.40
2022-08-03T15:06:51.277Z,2.30
2022-08-03T15:11:54.634Z,2.30
2022-08-03T15:16:57.866Z,2.30
2022-08-03T15:22:01.246Z,2.40
2022-08-03T15:27:06.313Z,2.10
2022-08-03T15:32:10.480Z,2.20
2022-08-03T15:37:16.447Z,2.20
2022-08-03T15:42:20.196Z,2.20
2022-08-03T15:47:28.193Z,2.40
2022-08-03T15:52:31.814Z,1.90
2022-08-03T15:57:35.069Z,2.10
2022-08-03T16:02:59.587Z,2.60
2022-08-03T16:08:05.550Z,2.50
2022-08-03T16:13:10.685Z,2.40
2022-08-03T16:18:13.925Z,2.00
2022-08-03T16:23:20.947Z,2.00
2022-08-03T16:28:24.850Z,2.00
2022-08-03T16:33:29.013Z,2.10
2022-08-03T16:38:32.300Z,2.10
2022-08-03T16:43:36.071Z,3.50
2022-08-03T16:48:40.638Z,3.00
2022-08-03T16:54:05.278Z,2.60
2022-08-03T16:59:07.438Z,2.40
2022-08-03T17:04:12.032Z,2.20
2022-08-03T17:09:20.937Z,2.30
2022-08-03T17:14:29.458Z,2.40
2022-08-03T17:19:39.789Z,2.20
2022-08-03T17:24:54.856Z,2.30
2022-08-03T17:30:08.011Z,2.30
2022-08-03T17:35:11.996Z,2.40
2022-08-03T17:40:15.911Z,2.50
2022-08-03T17:45:21.111Z,2.30
2022-08-03T17:50:32.366Z,2.30
2022-08-03T17:55:57.277Z,2.50
2022-08-03T18:02:00.050Z,2.10
2022-08-03T18:06:55.776Z,2.30
2022-08-03T18:12:05.916Z,2.10
2022-08-03T18:17:20.618Z,2.60
2022-08-03T18:22:28.364Z,2.50
2022-08-03T18:27:42.767Z,2.80
2022-08-03T18:33:01.056Z,2.70
2022-08-03T18:38:18.791Z,2.80
2022-08-03T18:43:46.575Z,2.80
2022-08-03T18:48:59.896Z,2.90
2022-08-03T18:54:45.526Z,2.70
2022-08-03T19:00:00.054Z,2.60
2022-08-03T19:05:09.816Z,2.70
2022-08-03T19:10:16.274Z,2.80
2022-08-03T19:15:36.317Z,3.20
2022-08-03T19:20:46.830Z,3.30
2022-08-03T19:25:51.044Z,3.00
2022-08-03T19:31:02.590Z,5.60
2022-08-03T19:36:10.565Z,4.10
2022-08-03T19:41:17.907Z,4.00
2022-08-03T19:46:27.643Z,4.60
2022-08-03T19:52:00.654Z,4.00
2022-08-03T19:57:01.892Z,3.70
2022-08-03T20:02:07.969Z,4.00
2022-08-03T20:07:22.891Z,4.50
2022-08-03T20:12:29.000Z,4.10
2022-08-03T20:17:55.415Z,4.70
2022-08-03T20:22:59.086Z,5.60
2022-08-03T20:28:14.030Z,5.60
2022-08-03T20:33:19.272Z,6.10
2022-08-03T20:38:27.294Z,12.50
2022-08-03T20:43:30.779Z,11.40
2022-08-03T20:48:37.472Z,14.80
2022-08-03T20:53:59.854Z,14.90
2022-08-03T20:59:07.332Z,14.80
2022-08-03T21:04:21.026Z,9.70
2022-08-03T21:09:33.478Z,9.50
2022-08-03T21:14:56.472Z,8.40
2022-08-03T21:20:05.494Z,8.30
2022-08-03T21:25:10.680Z,8.10
2022-08-03T21:30:15.668Z,8.90
2022-08-03T21:35:20.074Z,9.30
2022-08-03T21:40:23.659Z,9.40
2022-08-03T21:45:26.963Z,10.30
2022-08-03T21:50:31.658Z,7.50
2022-08-03T21:55:39.594Z,6.90
2022-08-03T22:00:44.915Z,6.70
2022-08-03T22:05:49.819Z,7.20
2022-08-03T22:10:53.105Z,6.60
2022-08-03T22:15:56.993Z,6.30
2022-08-03T22:21:02.443Z,6.20
2022-08-03T22:26:08.723Z,6.40
2022-08-03T22:31:56.951Z,5.70
2022-08-03T22:36:36.683Z,5.80
2022-08-03T22:41:40.222Z,5.10
2022-08-03T22:46:44.726Z,5.60
2022-08-03T22:51:49.217Z,5.40
2022-08-03T22:56:53.318Z,5.00
2022-08-03T23:02:02.469Z,4.20
2022-08-03T23:07:32.173Z,5.10
2022-08-03T23:12:38.851Z,4.60
2022-08-03T23:17:57.642Z,4.70
2022-08-03T23:23:02.389Z,4.80
2022-08-03T23:28:09.598Z,4.70
2022-08-03T23:33:14.149Z,4.70
2022-08-03T23:38:22.988Z,4.80
2022-08-03T23:43:50.777Z,4.90
2022-08-03T23:48:51.996Z,4.90
2022-08-03T23:54:06.829Z,4.90
2022-08-03T23:59:55.592Z,4.60
